sensor_id;sensor_type;location;lat;lon;timestamp;P1;durP1;ratioP1;P2;durP2;ratioP2
30080;SDS011;16902;50.816;12.828;2023-06-22T00:02:38;5.97;;;5.68;;
30080;SDS011;16902;50.816;12.828;2023-06-22T00:07:39;6.82;;;6.40;;
30080;SDS011;16902;50.816;12.828;2023-06-22T00:12:41;8.63;;;7.83;;
30080;SDS011;16902;50.816;12.828;2023-06-22T00:17:43;8.60;;;7.80;;
30080;SDS011;16902;50.816;12.828;2023-06-22T00:22:45;8.85;;;8.07;;
30080;SDS011;16902;50.816;12.828;2023-06-22T00:27:46;8.35;;;7.55;;
30080;SDS011;16902;50.816;12.828;2023-06-22T00:32:48;7.70;;;7.00;;
30080;SDS011;16902;50.816;12.828;2023-06-22T00:37:50;7.82;;;7.13;;
30080;SDS011;16902;50.816;12.828;2023-06-22T00:42:54;7.45;;;6.85;;
30080;SDS011;16902;50.816;12.828;2023-06-22T00:47:57;7.43;;;6.88;;
30080;SDS011;16902;50.816;12.828;2023-06-22T00:53:03;6.30;;;5.90;;
30080;SDS011;16902;50.816;12.828;2023-06-22T00:58:11;5.90;;;5.50;;
30080;SDS011;16902;50.816;12.828;2023-06-22T01:03:13;5.80;;;5.40;;
30080;SDS011;16902;50.816;12.828;2023-06-22T01:13:28;6.45;;;5.95;;
30080;SDS011;16902;50.816;12.828;2023-06-22T01:18:35;6.20;;;5.80;;
30080;SDS011;16902;50.816;12.828;2023-06-22T01:23:42;6.15;;;5.68;;
30080;SDS011;16902;50.816;12.828;2023-06-22T01:28:55;6.03;;;5.63;;
30080;SDS011;16902;50.816;12.828;2023-06-22T01:33:59;6.75;;;6.25;;
30080;SDS011;16902;50.816;12.828;2023-06-22T01:39:03;5.75;;;5.35;;
30080;SDS011;16902;50.816;12.828;2023-06-22T01:44:07;5.47;;;4.97;;
30080;SDS011;16902;50.816;12.828;2023-06-22T01:49:10;6.57;;;6.07;;
30080;SDS011;16902;50.816;12.828;2023-06-22T01:54:12;6.35;;;5.85;;
30080;SDS011;16902;50.816;12.828;2023-06-22T01:59:16;5.53;;;5.13;;
30080;SDS011;16902;50.816;12.828;2023-06-22T02:04:28;6.65;;;6.05;;
30080;SDS011;16902;50.816;12.828;2023-06-22T02:09:36;5.25;;;4.95;;
30080;SDS011;16902;50.816;12.828;2023-06-22T02:14:44;5.55;;;5.15;;
30080;SDS011;16902;50.816;12.828;2023-06-22T02:19:48;6.65;;;6.07;;
30080;SDS011;16902;50.816;12.828;2023-06-22T02:24:50;6.45;;;5.95;;
30080;SDS011;16902;50.816;12.828;2023-06-22T02:29:53;7.57;;;5.70;;
30080;SDS011;16902;50.816;12.828;2023-06-22T02:34:55;6.15;;;5.72;;
30080;SDS011;16902;50.816;12.828;2023-06-22T02:39:58;5.93;;;5.50;;
30080;SDS011;16902;50.816;12.828;2023-06-22T02:45:00;6.53;;;6.03;;
30080;SDS011;16902;50.816;12.828;2023-06-22T02:50:02;6.53;;;6.07;;
30080;SDS011;16902;50.816;12.828;2023-06-22T02:55:07;6.22;;;5.63;;
30080;SDS011;16902;50.816;12.828;2023-06-22T03:00:10;5.72;;;5.32;;
30080;SDS011;16902;50.816;12.828;2023-06-22T03:05:20;5.75;;;5.25;;
30080;SDS011;16902;50.816;12.828;2023-06-22T03:10:22;6.10;;;5.57;;
30080;SDS011;16902;50.816;12.828;2023-06-22T03:15:24;6.93;;;6.43;;
30080;SDS011;16902;50.816;12.828;2023-06-22T03:20:26;5.82;;;5.43;;
30080;SDS011;16902;50.816;12.828;2023-06-22T03:25:34;6.97;;;6.43;;
30080;SDS011;16902;50.816;12.828;2023-06-22T03:30:37;6.97;;;6.47;;
30080;SDS011;16902;50.816;12.828;2023-06-22T03:35:38;6.13;;;5.65;;
30080;SDS011;16902;50.816;12.828;2023-06-22T03:40:40;6.22;;;5.72;;
30080;SDS011;16902;50.816;12.828;2023-06-22T03:45:42;6.53;;;6.03;;
30080;SDS011;16902;50.816;12.828;2023-06-22T03:50:47;6.70;;;6.18;;
30080;SDS011;16902;50.816;12.828;2023-06-22T03:55:49;7.45;;;5.93;;
30080;SDS011;16902;50.816;12.828;2023-06-22T04:00:52;6.43;;;5.90;;
30080;SDS011;16902;50.816;12.828;2023-06-22T04:05:54;6.70;;;6.18;;
30080;SDS011;16902;50.816;12.828;2023-06-22T04:10:56;6.18;;;5.78;;
30080;SDS011;16902;50.816;12.828;2023-06-22T04:15:58;8.48;;;6.70;;
30080;SDS011;16902;50.816;12.828;2023-06-22T04:20:59;6.65;;;6.25;;
30080;SDS011;16902;50.816;12.828;2023-06-22T04:26:01;8.18;;;7.47;;
30080;SDS011;16902;50.816;12.828;2023-06-22T04:31:03;8.13;;;7.32;;
30080;SDS011;16902;50.816;12.828;2023-06-22T04:36:06;7.60;;;7.00;;
30080;SDS011;16902;50.816;12.828;2023-06-22T04:41:07;8.80;;;8.10;;
30080;SDS011;16902;50.816;12.828;2023-06-22T04:46:10;9.23;;;8.50;;
30080;SDS011;16902;50.816;12.828;2023-06-22T04:51:12;8.10;;;7.50;;
30080;SDS011;16902;50.816;12.828;2023-06-22T04:56:14;7.97;;;7.38;;
30080;SDS011;16902;50.816;12.828;2023-06-22T05:01:17;8.73;;;7.97;;
30080;SDS011;16902;50.816;12.828;2023-06-22T05:06:19;7.32;;;6.82;;
30080;SDS011;16902;50.816;12.828;2023-06-22T05:11:21;6.35;;;5.95;;
30080;SDS011;16902;50.816;12.828;2023-06-22T05:16:22;8.50;;;7.90;;
30080;SDS011;16902;50.816;12.828;2023-06-22T05:21:26;8.90;;;8.30;;
30080;SDS011;16902;50.816;12.828;2023-06-22T05:26:29;8.75;;;8.25;;
30080;SDS011;16902;50.816;12.828;2023-06-22T05:31:32;8.75;;;8.05;;
30080;SDS011;16902;50.816;12.828;2023-06-22T05:36:34;9.15;;;8.48;;
30080;SDS011;16902;50.816;12.828;2023-06-22T05:41:35;8.48;;;8.00;;
30080;SDS011;16902;50.816;12.828;2023-06-22T05:46:40;8.95;;;8.35;;
30080;SDS011;16902;50.816;12.828;2023-06-22T05:51:49;8.80;;;8.23;;
30080;SDS011;16902;50.816;12.828;2023-06-22T05:56:51;9.18;;;8.60;;
30080;SDS011;16902;50.816;12.828;2023-06-22T06:01:53;10.82;;;10.13;;
30080;SDS011;16902;50.816;12.828;2023-06-22T06:06:54;9.77;;;9.15;;
30080;SDS011;16902;50.816;12.828;2023-06-22T06:11:56;10.23;;;9.63;;
30080;SDS011;16902;50.816;12.828;2023-06-22T06:16:58;11.02;;;10.43;;
30080;SDS011;16902;50.816;12.828;2023-06-22T06:21:59;11.00;;;10.40;;
30080;SDS011;16902;50.816;12.828;2023-06-22T06:27:01;11.85;;;11.27;;
30080;SDS011;16902;50.816;12.828;2023-06-22T06:32:06;12.77;;;12.05;;
30080;SDS011;16902;50.816;12.828;2023-06-22T06:37:08;13.32;;;12.73;;
30080;SDS011;16902;50.816;12.828;2023-06-22T06:42:10;12.82;;;12.18;;
30080;SDS011;16902;50.816;12.828;2023-06-22T06:47:12;12.38;;;11.77;;
30080;SDS011;16902;50.816;12.828;2023-06-22T06:52:14;12.93;;;12.23;;
30080;SDS011;16902;50.816;12.828;2023-06-22T06:57:15;13.20;;;12.50;;
30080;SDS011;16902;50.816;12.828;2023-06-22T07:02:17;13.82;;;13.05;;
30080;SDS011;16902;50.816;12.828;2023-06-22T07:07:20;13.30;;;12.70;;
30080;SDS011;16902;50.816;12.828;2023-06-22T07:12:22;13.80;;;13.10;;
30080;SDS011;16902;50.816;12.828;2023-06-22T07:17:23;14.20;;;13.50;;
30080;SDS011;16902;50.816;12.828;2023-06-22T07:22:25;14.48;;;13.57;;
30080;SDS011;16902;50.816;12.828;2023-06-22T07:27:27;13.50;;;12.90;;
30080;SDS011;16902;50.816;12.828;2023-06-22T07:32:29;14.30;;;13.60;;
30080;SDS011;16902;50.816;12.828;2023-06-22T07:37:30;13.85;;;13.18;;
30080;SDS011;16902;50.816;12.828;2023-06-22T07:42:35;14.23;;;13.43;;
30080;SDS011;16902;50.816;12.828;2023-06-22T07:47:37;14.65;;;13.95;;
30080;SDS011;16902;50.816;12.828;2023-06-22T07:52:39;13.43;;;12.82;;
30080;SDS011;16902;50.816;12.828;2023-06-22T07:57:43;14.15;;;13.55;;
30080;SDS011;16902;50.816;12.828;2023-06-22T08:02:45;14.98;;;14.23;;
30080;SDS011;16902;50.816;12.828;2023-06-22T08:07:48;15.02;;;14.32;;
30080;SDS011;16902;50.816;12.828;2023-06-22T08:12:50;14.82;;;14.02;;
30080;SDS011;16902;50.816;12.828;2023-06-22T08:17:53;14.82;;;14.13;;
30080;SDS011;16902;50.816;12.828;2023-06-22T08:22:55;15.07;;;14.30;;
30080;SDS011;16902;50.816;12.828;2023-06-22T08:27:59;15.70;;;14.90;;
30080;SDS011;16902;50.816;12.828;2023-06-22T08:33:01;15.52;;;14.82;;
30080;SDS011;16902;50.816;12.828;2023-06-22T08:38:02;15.10;;;14.32;;
30080;SDS011;16902;50.816;12.828;2023-06-22T08:43:04;14.32;;;13.60;;
30080;SDS011;16902;50.816;12.828;2023-06-22T08:48:06;13.88;;;13.18;;
30080;SDS011;16902;50.816;12.828;2023-06-22T08:53:08;14.10;;;13.50;;
30080;SDS011;16902;50.816;12.828;2023-06-22T08:58:10;14.52;;;13.90;;
30080;SDS011;16902;50.816;12.828;2023-06-22T09:03:12;14.55;;;13.95;;
30080;SDS011;16902;50.816;12.828;2023-06-22T09:08:14;14.80;;;14.10;;
30080;SDS011;16902;50.816;12.828;2023-06-22T09:13:15;15.18;;;14.48;;
30080;SDS011;16902;50.816;12.828;2023-06-22T09:18:17;15.20;;;14.50;;
30080;SDS011;16902;50.816;12.828;2023-06-22T09:23:19;15.70;;;14.90;;
30080;SDS011;16902;50.816;12.828;2023-06-22T09:28:20;14.73;;;14.02;;
30080;SDS011;16902;50.816;12.828;2023-06-22T09:33:22;14.93;;;14.23;;
30080;SDS011;16902;50.816;12.828;2023-06-22T09:38:24;14.75;;;14.10;;
30080;SDS011;16902;50.816;12.828;2023-06-22T09:43:26;15.13;;;14.43;;
30080;SDS011;16902;50.816;12.828;2023-06-22T09:48:28;15.15;;;14.45;;
30080;SDS011;16902;50.816;12.828;2023-06-22T09:53:33;14.95;;;14.25;;
30080;SDS011;16902;50.816;12.828;2023-06-22T09:58:36;15.35;;;14.65;;
30080;SDS011;16902;50.816;12.828;2023-06-22T10:03:37;15.77;;;15.05;;
30080;SDS011;16902;50.816;12.828;2023-06-22T10:08:40;15.80;;;14.95;;
30080;SDS011;16902;50.816;12.828;2023-06-22T10:13:42;15.93;;;15.13;;
30080;SDS011;16902;50.816;12.828;2023-06-22T10:18:43;16.67;;;15.82;;
30080;SDS011;16902;50.816;12.828;2023-06-22T10:23:45;16.15;;;15.45;;
30080;SDS011;16902;50.816;12.828;2023-06-22T10:28:47;15.38;;;14.68;;
30080;SDS011;16902;50.816;12.828;2023-06-22T10:33:48;15.60;;;14.90;;
30080;SDS011;16902;50.816;12.828;2023-06-22T10:38:51;15.90;;;15.13;;
30080;SDS011;16902;50.816;12.828;2023-06-22T10:43:53;15.70;;;15.00;;
30080;SDS011;16902;50.816;12.828;2023-06-22T10:48:55;15.57;;;14.77;;
30080;SDS011;16902;50.816;12.828;2023-06-22T10:53:59;15.20;;;14.50;;
30080;SDS011;16902;50.816;12.828;2023-06-22T10:59:01;15.63;;;14.82;;
30080;SDS011;16902;50.816;12.828;2023-06-22T11:04:03;15.90;;;15.18;;
30080;SDS011;16902;50.816;12.828;2023-06-22T11:09:06;15.73;;;14.93;;
30080;SDS011;16902;50.816;12.828;2023-06-22T11:14:12;15.73;;;14.95;;
30080;SDS011;16902;50.816;12.828;2023-06-22T11:19:14;15.73;;;14.90;;
30080;SDS011;16902;50.816;12.828;2023-06-22T11:24:16;15.07;;;14.38;;
30080;SDS011;16902;50.816;12.828;2023-06-22T11:29:18;15.07;;;14.38;;
30080;SDS011;16902;50.816;12.828;2023-06-22T11:34:36;14.50;;;13.90;;
30080;SDS011;16902;50.816;12.828;2023-06-22T11:39:38;14.88;;;14.18;;
30080;SDS011;16902;50.816;12.828;2023-06-22T11:44:43;14.77;;;14.07;;
30080;SDS011;16902;50.816;12.828;2023-06-22T11:49:45;14.20;;;13.50;;
30080;SDS011;16902;50.816;12.828;2023-06-22T11:54:47;13.48;;;12.98;;
30080;SDS011;16902;50.816;12.828;2023-06-22T11:59:48;15.27;;;14.48;;
30080;SDS011;16902;50.816;12.828;2023-06-22T12:04:50;14.27;;;13.60;;
30080;SDS011;16902;50.816;12.828;2023-06-22T12:09:53;14.15;;;13.55;;
30080;SDS011;16902;50.816;12.828;2023-06-22T12:14:55;13.73;;;13.13;;
30080;SDS011;16902;50.816;12.828;2023-06-22T12:19:58;14.32;;;13.63;;
30080;SDS011;16902;50.816;12.828;2023-06-22T12:25:00;15.43;;;14.82;;
30080;SDS011;16902;50.816;12.828;2023-06-22T12:30:03;15.25;;;14.57;;
30080;SDS011;16902;50.816;12.828;2023-06-22T12:35:05;15.05;;;14.35;;
30080;SDS011;16902;50.816;12.828;2023-06-22T12:40:13;14.75;;;14.05;;
30080;SDS011;16902;50.816;12.828;2023-06-22T12:45:15;14.65;;;13.95;;
30080;SDS011;16902;50.816;12.828;2023-06-22T12:50:16;13.85;;;13.25;;
30080;SDS011;16902;50.816;12.828;2023-06-22T12:55:18;14.27;;;13.68;;
30080;SDS011;16902;50.816;12.828;2023-06-22T13:00:20;14.35;;;13.75;;
30080;SDS011;16902;50.816;12.828;2023-06-22T13:05:22;15.05;;;14.25;;
30080;SDS011;16902;50.816;12.828;2023-06-22T13:10:23;14.63;;;14.02;;
30080;SDS011;16902;50.816;12.828;2023-06-22T13:15:28;14.80;;;14.00;;
30080;SDS011;16902;50.816;12.828;2023-06-22T13:20:31;15.20;;;14.50;;
30080;SDS011;16902;50.816;12.828;2023-06-22T13:25:32;15.27;;;14.57;;
30080;SDS011;16902;50.816;12.828;2023-06-22T13:30:34;14.23;;;13.63;;
30080;SDS011;16902;50.816;12.828;2023-06-22T13:35:36;15.32;;;14.63;;
30080;SDS011;16902;50.816;12.828;2023-06-22T13:40:39;15.48;;;14.75;;
30080;SDS011;16902;50.816;12.828;2023-06-22T13:45:40;16.55;;;15.80;;
30080;SDS011;16902;50.816;12.828;2023-06-22T13:50:43;16.05;;;15.25;;
30080;SDS011;16902;50.816;12.828;2023-06-22T13:55:45;16.52;;;15.80;;
30080;SDS011;16902;50.816;12.828;2023-06-22T14:00:48;15.98;;;15.27;;
30080;SDS011;16902;50.816;12.828;2023-06-22T14:05:50;14.90;;;14.30;;
30080;SDS011;16902;50.816;12.828;2023-06-22T14:10:55;16.02;;;15.32;;
30080;SDS011;16902;50.816;12.828;2023-06-22T14:15:57;16.42;;;15.63;;
30080;SDS011;16902;50.816;12.828;2023-06-22T14:20:59;16.55;;;15.75;;
30080;SDS011;16902;50.816;12.828;2023-06-22T14:26:00;16.65;;;15.88;;
30080;SDS011;16902;50.816;12.828;2023-06-22T14:31:02;16.30;;;15.55;;
30080;SDS011;16902;50.816;12.828;2023-06-22T14:36:04;16.08;;;15.27;;
30080;SDS011;16902;50.816;12.828;2023-06-22T14:41:06;15.07;;;14.38;;
30080;SDS011;16902;50.816;12.828;2023-06-22T14:46:15;15.95;;;15.25;;
30080;SDS011;16902;50.816;12.828;2023-06-22T14:51:19;16.30;;;15.40;;
30080;SDS011;16902;50.816;12.828;2023-06-22T14:56:21;16.50;;;15.70;;
30080;SDS011;16902;50.816;12.828;2023-06-22T15:01:23;16.42;;;15.73;;
30080;SDS011;16902;50.816;12.828;2023-06-22T15:06:25;17.10;;;16.30;;
30080;SDS011;16902;50.816;12.828;2023-06-22T15:11:28;17.40;;;16.50;;
30080;SDS011;16902;50.816;12.828;2023-06-22T15:16:30;16.15;;;15.40;;
30080;SDS011;16902;50.816;12.828;2023-06-22T15:21:32;16.00;;;15.30;;
30080;SDS011;16902;50.816;12.828;2023-06-22T15:26:34;15.93;;;15.20;;
30080;SDS011;16902;50.816;12.828;2023-06-22T15:31:36;15.43;;;14.82;;
30080;SDS011;16902;50.816;12.828;2023-06-22T15:36:38;15.68;;;14.98;;
30080;SDS011;16902;50.816;12.828;2023-06-22T15:41:40;17.13;;;16.33;;
30080;SDS011;16902;50.816;12.828;2023-06-22T15:46:45;16.90;;;16.10;;
30080;SDS011;16902;50.816;12.828;2023-06-22T15:51:47;16.92;;;16.17;;
30080;SDS011;16902;50.816;12.828;2023-06-22T15:56:49;15.77;;;15.07;;
30080;SDS011;16902;50.816;12.828;2023-06-22T16:01:51;16.55;;;15.75;;
30080;SDS011;16902;50.816;12.828;2023-06-22T16:06:53;16.83;;;16.02;;
30080;SDS011;16902;50.816;12.828;2023-06-22T16:11:55;16.85;;;16.05;;
30080;SDS011;16902;50.816;12.828;2023-06-22T16:16:58;16.77;;;15.98;;
30080;SDS011;16902;50.816;12.828;2023-06-22T16:22:02;17.10;;;16.30;;
30080;SDS011;16902;50.816;12.828;2023-06-22T16:27:04;17.15;;;16.35;;
30080;SDS011;16902;50.816;12.828;2023-06-22T16:32:06;15.90;;;15.10;;
30080;SDS011;16902;50.816;12.828;2023-06-22T16:37:09;16.90;;;16.10;;
30080;SDS011;16902;50.816;12.828;2023-06-22T16:42:11;16.80;;;16.00;;
30080;SDS011;16902;50.816;12.828;2023-06-22T16:47:13;16.42;;;15.68;;
30080;SDS011;16902;50.816;12.828;2023-06-22T16:52:15;16.33;;;15.52;;
30080;SDS011;16902;50.816;12.828;2023-06-22T16:57:17;16.75;;;15.95;;
30080;SDS011;16902;50.816;12.828;2023-06-22T17:02:22;16.75;;;15.95;;
30080;SDS011;16902;50.816;12.828;2023-06-22T17:07:26;17.25;;;16.35;;
30080;SDS011;16902;50.816;12.828;2023-06-22T17:12:30;16.70;;;15.90;;
30080;SDS011;16902;50.816;12.828;2023-06-22T17:17:32;17.50;;;16.70;;
30080;SDS011;16902;50.816;12.828;2023-06-22T17:22:35;16.48;;;15.68;;
30080;SDS011;16902;50.816;12.828;2023-06-22T17:27:39;16.58;;;15.77;;
30080;SDS011;16902;50.816;12.828;2023-06-22T17:32:43;16.02;;;15.23;;
30080;SDS011;16902;50.816;12.828;2023-06-22T17:43:03;15.77;;;15.05;;
30080;SDS011;16902;50.816;12.828;2023-06-22T17:48:09;15.65;;;14.95;;
30080;SDS011;16902;50.816;12.828;2023-06-22T17:53:12;15.35;;;14.55;;
30080;SDS011;16902;50.816;12.828;2023-06-22T17:58:14;15.80;;;15.02;;
30080;SDS011;16902;50.816;12.828;2023-06-22T18:03:17;16.20;;;15.40;;
30080;SDS011;16902;50.816;12.828;2023-06-22T18:08:25;15.88;;;15.15;;
30080;SDS011;16902;50.816;12.828;2023-06-22T18:13:28;16.15;;;15.35;;
30080;SDS011;16902;50.816;12.828;2023-06-22T18:18:31;16.40;;;15.60;;
30080;SDS011;16902;50.816;12.828;2023-06-22T18:23:35;15.30;;;14.50;;
30080;SDS011;16902;50.816;12.828;2023-06-22T18:28:37;16.15;;;15.35;;
30080;SDS011;16902;50.816;12.828;2023-06-22T18:33:40;15.77;;;15.07;;
30080;SDS011;16902;50.816;12.828;2023-06-22T18:38:42;16.20;;;15.35;;
30080;SDS011;16902;50.816;12.828;2023-06-22T18:43:53;15.73;;;14.82;;
30080;SDS011;16902;50.816;12.828;2023-06-22T18:48:58;15.48;;;14.77;;
30080;SDS011;16902;50.816;12.828;2023-06-22T18:54:18;16.02;;;15.23;;
30080;SDS011;16902;50.816;12.828;2023-06-22T19:00:06;16.35;;;15.55;;
30080;SDS011;16902;50.816;12.828;2023-06-22T19:04:50;16.88;;;15.98;;
30080;SDS011;16902;50.816;12.828;2023-06-22T19:10:26;15.90;;;15.10;;
30080;SDS011;16902;50.816;12.828;2023-06-22T19:15:32;15.32;;;14.45;;
30080;SDS011;16902;50.816;12.828;2023-06-22T19:20:35;15.30;;;14.50;;
30080;SDS011;16902;50.816;12.828;2023-06-22T19:25:37;15.73;;;14.93;;
30080;SDS011;16902;50.816;12.828;2023-06-22T19:30:46;15.40;;;14.60;;
30080;SDS011;16902;50.816;12.828;2023-06-22T19:35:49;15.38;;;14.68;;
30080;SDS011;16902;50.816;12.828;2023-06-22T19:40:52;15.38;;;14.57;;
30080;SDS011;16902;50.816;12.828;2023-06-22T19:45:54;15.90;;;15.10;;
30080;SDS011;16902;50.816;12.828;2023-06-22T19:51:03;15.20;;;14.40;;
30080;SDS011;16902;50.816;12.828;2023-06-22T19:56:06;15.18;;;14.15;;
30080;SDS011;16902;50.816;12.828;2023-06-22T20:01:08;15.38;;;14.57;;
30080;SDS011;16902;50.816;12.828;2023-06-22T20:06:11;15.48;;;14.73;;
30080;SDS011;16902;50.816;12.828;2023-06-22T20:11:25;16.15;;;15.25;;
30080;SDS011;16902;50.816;12.828;2023-06-22T20:16:31;15.90;;;15.00;;
30080;SDS011;16902;50.816;12.828;2023-06-22T20:21:33;15.82;;;15.02;;
30080;SDS011;16902;50.816;12.828;2023-06-22T20:31:44;15.75;;;14.85;;
30080;SDS011;16902;50.816;12.828;2023-06-22T20:36:46;15.88;;;15.07;;
30080;SDS011;16902;50.816;12.828;2023-06-22T20:41:47;15.55;;;14.75;;
30080;SDS011;16902;50.816;12.828;2023-06-22T20:46:49;15.50;;;14.75;;
30080;SDS011;16902;50.816;12.828;2023-06-22T20:51:51;14.07;;;13.38;;
30080;SDS011;16902;50.816;12.828;2023-06-22T20:56:52;15.20;;;14.40;;
30080;SDS011;16902;50.816;12.828;2023-06-22T21:01:54;15.05;;;14.25;;
30080;SDS011;16902;50.816;12.828;2023-06-22T21:06:57;10.90;;;10.30;;
30080;SDS011;16902;50.816;12.828;2023-06-22T21:11:59;9.55;;;9.05;;
30080;SDS011;16902;50.816;12.828;2023-06-22T21:17:01;8.95;;;8.35;;
30080;SDS011;16902;50.816;12.828;2023-06-22T21:22:02;6.68;;;6.38;;
30080;SDS011;16902;50.816;12.828;2023-06-22T21:27:04;6.60;;;6.18;;
30080;SDS011;16902;50.816;12.828;2023-06-22T21:32:06;6.68;;;6.28;;
30080;SDS011;16902;50.816;12.828;2023-06-22T21:37:08;5.65;;;5.30;;
30080;SDS011;16902;50.816;12.828;2023-06-22T21:42:10;4.38;;;4.18;;
30080;SDS011;16902;50.816;12.828;2023-06-22T21:47:12;3.70;;;3.50;;
30080;SDS011;16902;50.816;12.828;2023-06-22T21:52:14;2.72;;;2.63;;
30080;SDS011;16902;50.816;12.828;2023-06-22T21:57:15;2.83;;;2.63;;
30080;SDS011;16902;50.816;12.828;2023-06-22T22:02:17;2.55;;;2.45;;
30080;SDS011;16902;50.816;12.828;2023-06-22T22:07:19;3.10;;;1.85;;
30080;SDS011;16902;50.816;12.828;2023-06-22T22:12:21;2.65;;;2.03;;
30080;SDS011;16902;50.816;12.828;2023-06-22T22:17:22;1.80;;;1.70;;
30080;SDS011;16902;50.816;12.828;2023-06-22T22:22:24;1.38;;;1.38;;
30080;SDS011;16902;50.816;12.828;2023-06-22T22:27:26;2.17;;;2.08;;
30080;SDS011;16902;50.816;12.828;2023-06-22T22:32:27;1.75;;;1.65;;
30080;SDS011;16902;50.816;12.828;2023-06-22T22:37:29;2.13;;;2.00;;
30080;SDS011;16902;50.816;12.828;2023-06-22T22:42:31;1.90;;;1.80;;
30080;SDS011;16902;50.816;12.828;2023-06-22T22:47:35;1.85;;;1.65;;
30080;SDS011;16902;50.816;12.828;2023-06-22T22:52:37;1.80;;;1.70;;
30080;SDS011;16902;50.816;12.828;2023-06-22T22:57:39;1.70;;;1.60;;
30080;SDS011;16902;50.816;12.828;2023-06-22T23:02:44;1.55;;;1.45;;
30080;SDS011;16902;50.816;12.828;2023-06-22T23:07:46;1.77;;;1.60;;
30080;SDS011;16902;50.816;12.828;2023-06-22T23:12:48;1.25;;;1.25;;
30080;SDS011;16902;50.816;12.828;2023-06-22T23:17:50;1.10;;;1.10;;
30080;SDS011;16902;50.816;12.828;2023-06-22T23:22:55;2.08;;;1.17;;
30080;SDS011;16902;50.816;12.828;2023-06-22T23:28:00;3.00;;;1.30;;
30080;SDS011;16902;50.816;12.828;2023-06-22T23:33:02;1.60;;;1.50;;
30080;SDS011;16902;50.816;12.828;2023-06-22T23:38:04;2.35;;;1.60;;
30080;SDS011;16902;50.816;12.828;2023-06-22T23:43:05;1.65;;;1.55;;
30080;SDS011;16902;50.816;12.828;2023-06-22T23:48:10;1.52;;;1.50;;
30080;SDS011;16902;50.816;12.828;2023-06-22T23:53:12;1.42;;;1.40;;
30080;SDS011;16902;50.816;12.828;2023-06-22T23:58:14;1.75;;;1.65;;
